createdAt,value
2023-02-17T00:02:05.909Z,17.67
2023-02-17T00:08:07.818Z,19.10
2023-02-17T00:14:13.521Z,17.20
2023-02-17T00:20:15.404Z,17.87
2023-02-17T00:26:19.074Z,19.30
2023-02-17T00:32:21.005Z,18.20
2023-02-17T00:38:22.918Z,19.50
2023-02-17T00:44:25.566Z,19.40
2023-02-17T00:50:27.472Z,20.07
2023-02-17T00:56:29.356Z,18.20
2023-02-17T01:02:31.240Z,17.03
2023-02-17T01:08:33.204Z,19.33
2023-02-17T01:14:35.119Z,18.00
2023-02-17T01:20:38.871Z,18.10
2023-02-17T01:26:41.056Z,18.47
2023-02-17T01:32:42.978Z,19.17
2023-02-17T01:38:46.500Z,20.03
2023-02-17T01:45:19.260Z,18.47
2023-02-17T01:51:26.559Z,18.63
2023-02-17T01:57:32.880Z,18.23
2023-02-17T02:03:37.448Z,19.50
2023-02-17T02:09:47.246Z,20.17
2023-02-17T02:16:19.017Z,19.57
2023-02-17T02:22:51.616Z,18.10
2023-02-17T02:29:06.060Z,19.50
2023-02-17T02:35:54.595Z,18.17
2023-02-17T02:42:02.992Z,19.20
2023-02-17T02:48:04.906Z,19.07
2023-02-17T02:54:47.967Z,18.27
2023-02-17T03:01:14.142Z,19.00
2023-02-17T03:07:31.932Z,18.27
2023-02-17T03:13:39.382Z,17.80
2023-02-17T03:19:42.129Z,17.47
2023-02-17T03:25:45.201Z,18.20
2023-02-17T03:31:47.416Z,18.63
2023-02-17T03:37:49.357Z,18.13
2023-02-17T03:43:51.356Z,17.00
2023-02-17T03:49:53.294Z,19.40
2023-02-17T03:55:55.172Z,17.50
2023-02-17T04:01:57.116Z,19.07
2023-02-17T04:07:59.050Z,17.73
2023-02-17T04:14:01.058Z,18.70
2023-02-17T04:20:03.667Z,17.07
2023-02-17T04:26:07.722Z,17.27
2023-02-17T04:32:09.827Z,16.50
2023-02-17T04:38:12.233Z,16.30
2023-02-17T04:44:14.127Z,16.30
2023-02-17T04:50:16.416Z,15.87
2023-02-17T04:56:18.480Z,18.33
2023-02-17T05:02:20.417Z,16.17
2023-02-17T05:08:22.414Z,17.30
2023-02-17T05:14:24.447Z,16.90
2023-02-17T05:20:26.486Z,15.20
2023-02-17T05:26:28.572Z,16.93
2023-02-17T05:32:30.546Z,14.50
2023-02-17T05:38:33.140Z,15.10
2023-02-17T05:44:35.088Z,15.50
2023-02-17T05:50:37.002Z,15.00
2023-02-17T05:56:39.652Z,14.87
2023-02-17T06:02:41.672Z,13.70
2023-02-17T06:08:43.616Z,14.37
2023-02-17T06:14:45.507Z,13.80
2023-02-17T06:20:47.451Z,13.90
2023-02-17T06:26:49.322Z,14.73
2023-02-17T06:32:51.443Z,14.00
2023-02-17T06:38:53.363Z,15.00
2023-02-17T06:44:55.239Z,15.03
2023-02-17T06:50:57.112Z,13.00
2023-02-17T06:56:59.018Z,12.77
2023-02-17T07:03:01.050Z,13.80
2023-02-17T07:09:03.472Z,11.53
2023-02-17T07:15:05.897Z,11.90
2023-02-17T07:21:09.874Z,11.27
2023-02-17T07:27:12.238Z,11.23
2023-02-17T07:33:14.139Z,10.13
2023-02-17T07:39:16.586Z,10.90
2023-02-17T07:45:18.774Z,10.37
2023-02-17T07:51:22.822Z,10.93
2023-02-17T07:57:24.796Z,11.57
2023-02-17T08:03:26.704Z,12.87
2023-02-17T08:09:47.313Z,10.40
2023-02-17T08:15:49.214Z,10.70
2023-02-17T08:21:51.215Z,10.47
2023-02-17T08:27:54.451Z,9.73
2023-02-17T08:33:57.224Z,9.00
2023-02-17T08:39:59.337Z,9.37
2023-02-17T08:46:01.295Z,7.80
2023-02-17T08:52:03.943Z,7.83
2023-02-17T08:58:05.925Z,8.17
2023-02-17T09:04:10.319Z,7.50
2023-02-17T09:10:13.393Z,7.40
2023-02-17T09:16:15.479Z,7.70
2023-02-17T09:22:30.707Z,7.37
2023-02-17T09:28:34.193Z,6.30
2023-02-17T09:34:39.493Z,8.00
2023-02-17T09:41:14.379Z,7.40
2023-02-17T09:47:23.271Z,7.50
2023-02-17T09:53:57.963Z,5.77
2023-02-17T10:00:34.023Z,5.83
2023-02-17T10:06:49.866Z,5.00
2023-02-17T10:13:02.506Z,5.77
2023-02-17T10:19:26.757Z,5.43
2023-02-17T10:25:56.343Z,5.00
2023-02-17T10:32:23.512Z,4.90
2023-02-17T10:38:41.299Z,4.50
2023-02-17T10:44:44.107Z,4.30
2023-02-17T10:50:47.153Z,3.80
2023-02-17T10:56:54.236Z,3.77
2023-02-17T11:02:56.259Z,4.57
2023-02-17T11:09:07.574Z,2.97
2023-02-17T11:15:22.922Z,3.60
2023-02-17T11:21:24.991Z,2.93
2023-02-17T11:27:27.564Z,3.03
2023-02-17T11:33:40.591Z,2.80
2023-02-17T11:39:54.590Z,2.60
2023-02-17T11:46:12.192Z,2.63
2023-02-17T11:52:45.088Z,2.50
2023-02-17T11:58:46.848Z,2.07
2023-02-17T12:05:28.918Z,2.47
2023-02-17T12:11:41.002Z,2.90
2023-02-17T12:18:06.943Z,2.80
2023-02-17T12:24:37.799Z,2.00
2023-02-17T12:30:57.980Z,2.50
2023-02-17T12:37:01.107Z,2.60
2023-02-17T12:43:17.696Z,3.30
2023-02-17T12:49:40.086Z,2.90
2023-02-17T12:55:54.355Z,3.73
2023-02-17T13:02:13.227Z,3.20
2023-02-17T13:08:30.504Z,3.20
2023-02-17T13:14:49.262Z,3.27
2023-02-17T13:21:27.652Z,4.00
2023-02-17T13:27:31.072Z,2.80
2023-02-17T13:33:59.291Z,3.17
2023-02-17T13:40:24.184Z,3.53
2023-02-17T13:46:27.589Z,2.67
2023-02-17T13:52:31.985Z,2.70
2023-02-17T13:58:41.112Z,2.83
2023-02-17T14:04:43.834Z,2.57
2023-02-17T14:10:46.282Z,2.90
2023-02-17T14:17:06.325Z,2.40
2023-02-17T14:23:13.462Z,2.60
2023-02-17T14:29:16.453Z,3.70
2023-02-17T14:35:18.225Z,3.50
2023-02-17T14:41:20.154Z,3.03
2023-02-17T14:47:22.028Z,4.60
2023-02-17T14:53:33.274Z,3.43
2023-02-17T14:59:35.199Z,3.53
2023-02-17T15:05:37.112Z,4.27
2023-02-17T15:11:39.922Z,3.70
2023-02-17T15:17:41.834Z,3.60
2023-02-17T15:23:43.739Z,4.10
2023-02-17T15:29:45.688Z,8.93
2023-02-17T15:35:51.347Z,4.43
2023-02-17T15:41:56.244Z,8.27
2023-02-17T15:48:21.482Z,6.10
2023-02-17T15:54:23.479Z,3.67
2023-02-17T16:00:29.692Z,8.20
2023-02-17T16:06:31.725Z,6.50
2023-02-17T16:12:33.722Z,6.23
2023-02-17T16:18:35.610Z,7.30
2023-02-17T16:24:37.527Z,6.60
2023-02-17T16:30:41.693Z,6.67
2023-02-17T16:36:44.143Z,9.80
2023-02-17T16:42:46.028Z,5.10
2023-02-17T16:48:48.283Z,3.67
2023-02-17T16:54:50.364Z,3.30
2023-02-17T17:00:55.043Z,4.27
2023-02-17T17:06:56.942Z,3.70
2023-02-17T17:12:59.796Z,2.67
2023-02-17T17:19:02.668Z,6.70
2023-02-17T17:25:04.715Z,3.90
2023-02-17T17:31:06.735Z,5.07
2023-02-17T17:37:10.872Z,3.47
2023-02-17T17:43:12.752Z,4.60
2023-02-17T17:49:17.879Z,4.27
2023-02-17T17:55:19.811Z,3.20
2023-02-17T18:01:22.591Z,5.47
2023-02-17T18:07:26.572Z,4.93
2023-02-17T18:13:28.746Z,4.17
2023-02-17T18:19:32.416Z,3.70
2023-02-17T18:25:34.346Z,5.30
2023-02-17T18:31:36.700Z,4.20
2023-02-17T18:37:41.024Z,5.00
2023-02-17T18:43:42.997Z,3.83
2023-02-17T18:49:44.899Z,4.07
2023-02-17T18:55:46.796Z,4.40
2023-02-17T19:01:48.795Z,5.43
2023-02-17T19:07:50.682Z,3.50
2023-02-17T19:13:53.450Z,4.07
2023-02-17T19:19:55.341Z,4.27
2023-02-17T19:25:57.470Z,3.73
2023-02-17T19:32:01.240Z,4.80
2023-02-17T19:38:03.213Z,4.30
2023-02-17T19:44:05.306Z,5.57
2023-02-17T19:50:08.043Z,5.13
2023-02-17T19:56:25.787Z,4.30
2023-02-17T20:02:27.813Z,10.70
2023-02-17T20:08:29.712Z,7.97
2023-02-17T20:14:31.650Z,3.00
2023-02-17T20:20:33.563Z,2.90
2023-02-17T20:26:41.682Z,3.70
2023-02-17T20:32:43.584Z,4.13
2023-02-17T20:38:45.919Z,2.30
2023-02-17T20:44:50.252Z,2.50
2023-02-17T20:50:52.291Z,1.90
2023-02-17T20:56:55.700Z,1.70
2023-02-17T21:02:57.703Z,1.63
2023-02-17T21:09:04.462Z,1.87
2023-02-17T21:15:07.064Z,1.60
2023-02-17T21:21:09.112Z,1.43
2023-02-17T21:27:10.983Z,2.07
2023-02-17T21:33:13.013Z,2.17
2023-02-17T21:39:14.966Z,2.20
2023-02-17T21:45:16.959Z,1.70
2023-02-17T21:51:19.185Z,1.67
2023-02-17T21:57:21.153Z,1.67
2023-02-17T22:03:23.454Z,1.80
2023-02-17T22:09:25.335Z,1.67
2023-02-17T22:15:27.226Z,1.73
2023-02-17T22:21:29.487Z,2.20
2023-02-17T22:27:32.279Z,1.83
2023-02-17T22:33:34.876Z,1.67
2023-02-17T22:39:36.771Z,1.90
2023-02-17T22:45:40.252Z,2.07
2023-02-17T22:51:42.173Z,2.00
2023-02-17T22:57:44.046Z,2.20
2023-02-17T23:03:47.374Z,1.70
2023-02-17T23:09:49.282Z,2.43
2023-02-17T23:15:51.482Z,2.13
2023-02-17T23:21:57.653Z,1.87
2023-02-17T23:27:59.910Z,1.43
2023-02-17T23:34:01.814Z,2.13
2023-02-17T23:40:05.430Z,1.57
2023-02-17T23:46:07.900Z,1.70
2023-02-17T23:52:11.046Z,2.00
2023-02-17T23:58:12.946Z,1.90
